createdAt,value
2022-12-23T00:01:43.009Z,9.02
2022-12-23T00:04:12.093Z,9.07
2022-12-23T00:06:42.611Z,9.18
2022-12-23T00:09:11.315Z,9.23
2022-12-23T00:12:01.670Z,9.44
2022-12-23T00:14:47.657Z,9.47
2022-12-23T00:17:23.668Z,9.47
2022-12-23T00:19:53.125Z,9.51
2022-12-23T00:22:44.457Z,9.54
2022-12-23T00:25:14.105Z,9.42
2022-12-23T00:27:43.300Z,9.37
2022-12-23T00:30:13.091Z,9.34
2022-12-23T00:32:42.118Z,9.32
2022-12-23T00:35:11.024Z,9.35
2022-12-23T00:37:41.133Z,9.34
2022-12-23T00:40:31.677Z,9.31
2022-12-23T00:43:01.176Z,9.28
2022-12-23T00:45:29.677Z,9.27
2022-12-23T00:48:15.841Z,9.17
2022-12-23T00:50:44.787Z,9.09
2022-12-23T00:53:14.710Z,9.03
2022-12-23T00:55:43.388Z,8.97
2022-12-23T00:58:11.858Z,8.96
2022-12-23T01:00:58.232Z,8.91
2022-12-23T01:03:45.197Z,8.91
2022-12-23T01:06:14.047Z,8.93
2022-12-23T01:08:44.719Z,8.94
2022-12-23T01:11:13.967Z,8.95
2022-12-23T01:13:42.832Z,8.98
2022-12-23T01:16:17.152Z,9.08
2022-12-23T01:18:46.798Z,9.17
2022-12-23T01:21:15.306Z,9.41
2022-12-23T01:23:45.499Z,9.66
2022-12-23T01:26:14.336Z,9.75
2022-12-23T01:28:43.542Z,9.98
2022-12-23T01:31:13.011Z,10.08
2022-12-23T01:33:41.624Z,10.34
2022-12-23T01:36:11.569Z,10.39
2022-12-23T01:38:40.051Z,10.44
2022-12-23T01:41:30.042Z,10.52
2022-12-23T01:43:57.612Z,10.61
2022-12-23T01:46:26.721Z,10.59
2022-12-23T01:48:57.289Z,10.58
2022-12-23T01:51:30.003Z,10.71
2022-12-23T01:54:02.900Z,10.66
2022-12-23T01:56:37.212Z,10.63
2022-12-23T01:59:08.927Z,10.68
2022-12-23T02:01:55.482Z,10.61
2022-12-23T02:04:30.063Z,10.57
2022-12-23T02:07:16.146Z,10.45
2022-12-23T02:09:45.531Z,10.46
2022-12-23T02:12:33.694Z,10.41
2022-12-23T02:15:49.987Z,10.44
2022-12-23T02:18:32.265Z,10.43
2022-12-23T02:21:13.149Z,10.47
2022-12-23T02:24:05.975Z,10.56
2022-12-23T02:26:59.630Z,10.59
2022-12-23T02:30:13.202Z,10.69
2022-12-23T02:33:01.850Z,10.64
2022-12-23T02:35:39.333Z,10.73
2022-12-23T02:38:13.675Z,10.68
2022-12-23T02:40:52.904Z,10.63
2022-12-23T02:43:30.903Z,10.56
2022-12-23T02:46:06.001Z,10.53
2022-12-23T02:48:41.096Z,10.47
2022-12-23T02:51:12.362Z,10.59
2022-12-23T02:53:45.294Z,10.57
2022-12-23T02:56:18.437Z,10.54
2022-12-23T02:58:54.537Z,10.53
2022-12-23T03:01:25.765Z,10.51
2022-12-23T03:03:57.355Z,10.44
2022-12-23T03:06:30.025Z,10.47
2022-12-23T03:09:01.561Z,10.38
2022-12-23T03:11:41.099Z,10.40
2022-12-23T03:14:42.697Z,10.37
2022-12-23T03:17:26.201Z,10.33
2022-12-23T03:20:04.876Z,10.27
2022-12-23T03:22:38.906Z,10.27
2022-12-23T03:25:15.419Z,10.30
2022-12-23T03:27:51.040Z,10.31
2022-12-23T03:30:21.808Z,10.34
2022-12-23T03:32:54.815Z,10.32
2022-12-23T03:35:28.234Z,10.30
2022-12-23T03:37:59.367Z,10.29
2022-12-23T03:40:32.015Z,10.27
2022-12-23T03:43:05.356Z,10.24
2022-12-23T03:45:41.056Z,10.20
2022-12-23T03:48:13.335Z,10.22
2022-12-23T03:50:45.220Z,10.23
2022-12-23T03:53:18.425Z,10.23
2022-12-23T03:55:53.118Z,10.21
2022-12-23T03:58:32.441Z,10.21
2022-12-23T04:01:10.482Z,10.17
2022-12-23T04:03:49.213Z,10.19
2022-12-23T04:06:21.339Z,10.16
2022-12-23T04:08:51.266Z,10.13
2022-12-23T04:11:21.375Z,10.09
2022-12-23T04:13:50.540Z,10.02
2022-12-23T04:16:19.403Z,10.01
2022-12-23T04:18:47.950Z,10.03
2022-12-23T04:21:16.459Z,10.08
2022-12-23T04:23:46.505Z,10.12
2022-12-23T04:26:15.269Z,10.17
2022-12-23T04:28:43.904Z,10.19
2022-12-23T04:31:15.836Z,10.27
2022-12-23T04:33:44.680Z,10.29
2022-12-23T04:36:13.807Z,10.32
2022-12-23T04:38:43.079Z,10.30
2022-12-23T04:41:13.025Z,10.29
2022-12-23T04:43:42.599Z,10.28
2022-12-23T04:48:32.763Z,10.27
2022-12-23T04:51:02.316Z,10.24
2022-12-23T04:53:30.899Z,10.24
2022-12-23T04:55:59.428Z,10.25
2022-12-23T04:58:27.990Z,10.24
2022-12-23T05:01:03.349Z,10.25
2022-12-23T05:03:33.522Z,10.27
2022-12-23T05:06:02.359Z,10.26
2022-12-23T05:08:31.284Z,10.21
2022-12-23T05:10:59.741Z,10.21
2022-12-23T05:13:28.218Z,10.22
2022-12-23T05:16:00.559Z,10.22
2022-12-23T05:18:29.077Z,10.21
2022-12-23T05:20:58.916Z,10.19
2022-12-23T05:23:27.249Z,10.18
2022-12-23T05:25:55.914Z,10.19
2022-12-23T05:28:24.618Z,10.20
2022-12-23T05:30:59.269Z,10.21
2022-12-23T05:33:28.286Z,10.19
2022-12-23T05:35:57.253Z,10.19
2022-12-23T05:38:27.852Z,10.21
2022-12-23T05:40:56.422Z,10.20
2022-12-23T05:43:25.005Z,10.18
2022-12-23T05:45:53.830Z,10.16
2022-12-23T05:48:22.596Z,10.08
2022-12-23T05:50:51.766Z,10.07
2022-12-23T05:53:21.192Z,10.05
2022-12-23T05:55:51.444Z,10.01
2022-12-23T05:58:20.188Z,9.99
2022-12-23T06:00:49.347Z,9.94
2022-12-23T06:03:17.987Z,9.91
2022-12-23T06:05:51.139Z,9.91
2022-12-23T06:08:19.705Z,9.91
2022-12-23T06:10:48.215Z,9.97
2022-12-23T06:13:18.020Z,10.00
2022-12-23T06:15:46.453Z,10.01
2022-12-23T06:18:14.882Z,10.00
2022-12-23T06:20:46.468Z,9.96
2022-12-23T06:23:14.927Z,9.94
2022-12-23T06:25:43.439Z,9.94
2022-12-23T06:28:11.953Z,9.92
2022-12-23T06:30:41.729Z,9.87
2022-12-23T06:33:10.169Z,9.88
2022-12-23T06:35:38.639Z,9.86
2022-12-23T06:40:25.420Z,9.80
2022-12-23T06:42:53.740Z,9.76
2022-12-23T06:45:22.974Z,9.76
2022-12-23T06:47:51.540Z,9.76
2022-12-23T06:50:20.618Z,9.71
2022-12-23T06:52:49.223Z,9.70
2022-12-23T06:55:17.838Z,9.69
2022-12-23T07:00:07.152Z,9.72
2022-12-23T07:02:36.013Z,9.68
2022-12-23T07:05:05.350Z,9.67
2022-12-23T07:07:34.084Z,9.66
2022-12-23T07:10:02.615Z,9.63
2022-12-23T07:14:51.425Z,9.66
2022-12-23T07:17:20.096Z,9.65
2022-12-23T07:19:48.758Z,9.67
2022-12-23T07:22:17.535Z,9.65
2022-12-23T07:24:46.715Z,9.68
2022-12-23T07:27:15.348Z,9.67
2022-12-23T07:29:44.176Z,9.64
2022-12-23T07:32:14.072Z,9.66
2022-12-23T07:34:42.897Z,9.65
2022-12-23T07:39:32.056Z,9.67
2022-12-23T07:42:33.846Z,9.65
2022-12-23T07:44:49.268Z,9.66
2022-12-23T07:47:17.989Z,9.69
2022-12-23T07:49:46.595Z,9.67
2022-12-23T07:56:53.927Z,9.64
2022-12-23T07:59:22.791Z,9.66
2022-12-23T08:01:51.771Z,9.67
2022-12-23T08:04:20.461Z,9.66
2022-12-23T08:06:49.294Z,9.70
2022-12-23T08:09:19.778Z,9.75
2022-12-23T08:11:48.300Z,9.79
2022-12-23T08:14:18.232Z,9.79
2022-12-23T08:16:46.641Z,9.81
2022-12-23T08:19:15.535Z,9.84
2022-12-23T08:21:44.168Z,9.84
2022-12-23T08:24:12.909Z,9.81
2022-12-23T08:26:41.752Z,9.83
2022-12-23T08:29:10.278Z,9.82
2022-12-23T08:31:40.212Z,9.83
2022-12-23T08:34:10.623Z,9.82
2022-12-23T08:36:39.986Z,9.79
2022-12-23T08:39:11.229Z,9.82
2022-12-23T08:43:58.581Z,9.87
2022-12-23T08:46:28.170Z,9.95
2022-12-23T08:48:57.165Z,10.00
2022-12-23T08:54:04.062Z,10.08
2022-12-23T08:56:35.491Z,10.13
2022-12-23T08:59:04.554Z,10.16
2022-12-23T09:01:35.625Z,10.20
2022-12-23T09:04:05.395Z,10.22
2022-12-23T09:06:36.567Z,10.24
2022-12-23T09:09:07.351Z,10.25
2022-12-23T09:11:36.722Z,10.27
2022-12-23T09:14:07.021Z,10.28
2022-12-23T09:16:35.652Z,10.32
2022-12-23T09:19:04.835Z,10.36
2022-12-23T09:21:33.795Z,10.36
2022-12-23T09:24:02.371Z,10.37
2022-12-23T09:26:32.613Z,10.39
2022-12-23T09:29:01.704Z,10.43
2022-12-23T09:31:36.282Z,10.44
2022-12-23T09:34:06.538Z,10.48
2022-12-23T09:36:35.379Z,10.49
2022-12-23T09:39:03.966Z,10.50
2022-12-23T09:41:54.276Z,10.56
2022-12-23T09:44:44.846Z,10.57
2022-12-23T09:47:17.209Z,10.59
2022-12-23T09:49:50.867Z,10.65
2022-12-23T09:52:26.102Z,10.63
2022-12-23T09:54:56.140Z,10.68
2022-12-23T09:57:35.355Z,10.74
2022-12-23T10:00:14.373Z,10.76
2022-12-23T10:03:06.149Z,10.84
2022-12-23T10:05:47.626Z,10.86
2022-12-23T10:08:22.487Z,10.86
2022-12-23T10:10:54.522Z,10.84
2022-12-23T10:13:29.871Z,10.89
2022-12-23T10:16:05.349Z,10.91
2022-12-23T10:18:49.400Z,10.90
2022-12-23T10:21:25.667Z,10.92
2022-12-23T10:23:56.043Z,10.92
2022-12-23T10:26:26.763Z,10.90
2022-12-23T10:29:02.267Z,10.89
2022-12-23T10:31:41.309Z,10.91
2022-12-23T10:34:18.597Z,10.95
2022-12-23T10:36:55.350Z,10.95
2022-12-23T10:39:33.303Z,10.96
2022-12-23T10:42:12.184Z,10.98
2022-12-23T10:45:03.374Z,11.02
2022-12-23T10:47:49.956Z,11.03
2022-12-23T10:50:46.072Z,11.04
2022-12-23T10:53:22.071Z,11.08
2022-12-23T10:55:51.326Z,11.14
2022-12-23T10:58:20.831Z,11.12
2022-12-23T11:00:55.032Z,11.10
2022-12-23T11:03:29.561Z,11.11
2022-12-23T11:05:59.625Z,11.11
2022-12-23T11:08:30.385Z,11.12
2022-12-23T11:11:01.277Z,11.13
2022-12-23T11:13:37.104Z,11.15
2022-12-23T11:16:20.421Z,11.16
2022-12-23T11:18:58.020Z,11.17
2022-12-23T11:21:27.436Z,11.23
2022-12-23T11:24:14.836Z,11.26
2022-12-23T11:26:44.534Z,11.26
2022-12-23T11:29:20.845Z,11.26
2022-12-23T11:31:51.645Z,11.25
2022-12-23T11:34:23.830Z,11.23
2022-12-23T11:36:58.763Z,11.26
2022-12-23T11:39:34.027Z,11.27
2022-12-23T11:42:06.999Z,11.25
2022-12-23T11:44:40.250Z,11.24
2022-12-23T11:47:29.191Z,11.24
2022-12-23T11:50:00.298Z,11.23
2022-12-23T11:52:30.883Z,11.24
2022-12-23T11:55:01.571Z,11.24
2022-12-23T11:57:39.073Z,11.22
2022-12-23T12:00:09.504Z,11.20
2022-12-23T12:02:43.969Z,11.24
2022-12-23T12:05:22.652Z,11.25
2022-12-23T12:07:52.970Z,11.24
2022-12-23T12:10:26.910Z,11.25
2022-12-23T12:12:58.382Z,11.21
2022-12-23T12:15:35.648Z,11.07
2022-12-23T12:18:09.826Z,11.09
2022-12-23T12:20:43.083Z,11.11
2022-12-23T12:23:15.898Z,11.14
2022-12-23T12:25:49.851Z,11.12
2022-12-23T12:28:21.928Z,11.15
2022-12-23T12:30:55.680Z,11.13
2022-12-23T12:33:35.997Z,11.10
2022-12-23T12:36:13.744Z,11.10
2022-12-23T12:38:47.672Z,11.13
2022-12-23T12:41:21.413Z,11.13
2022-12-23T12:43:53.935Z,11.15
2022-12-23T12:46:31.676Z,11.13
2022-12-23T12:49:07.219Z,11.14
2022-12-23T12:51:44.619Z,11.13
2022-12-23T12:54:21.116Z,11.12
2022-12-23T12:56:51.194Z,11.06
2022-12-23T12:59:22.180Z,11.07
2022-12-23T13:02:08.421Z,11.10
2022-12-23T13:05:06.117Z,11.09
2022-12-23T13:07:44.799Z,11.07
2022-12-23T13:10:24.968Z,11.05
2022-12-23T13:13:01.574Z,11.04
2022-12-23T13:15:35.257Z,11.03
2022-12-23T13:20:32.413Z,11.03
2022-12-23T13:25:25.310Z,11.04
2022-12-23T13:27:58.142Z,11.03
2022-12-23T13:33:24.327Z,11.03
2022-12-23T13:36:06.744Z,11.04
2022-12-23T13:38:52.951Z,11.01
2022-12-23T13:41:31.501Z,11.03
2022-12-23T13:44:01.668Z,11.06
2022-12-23T13:46:44.550Z,11.03
2022-12-23T13:49:22.855Z,11.03
2022-12-23T13:51:58.608Z,11.03
2022-12-23T13:54:44.496Z,11.03
2022-12-23T13:57:24.531Z,11.03
2022-12-23T14:00:06.010Z,11.05
2022-12-23T14:02:50.963Z,11.13
2022-12-23T14:05:33.725Z,11.13
2022-12-23T14:08:04.557Z,11.11
2022-12-23T14:10:33.676Z,11.10
2022-12-23T14:13:06.451Z,11.05
2022-12-23T14:15:55.872Z,11.03
2022-12-23T14:18:43.465Z,10.98
2022-12-23T14:21:23.146Z,11.08
2022-12-23T14:24:23.660Z,11.31
2022-12-23T14:27:15.557Z,11.32
2022-12-23T14:30:03.375Z,11.54
2022-12-23T14:32:43.785Z,11.66
2022-12-23T14:35:28.927Z,11.63
2022-12-23T14:38:27.125Z,11.65
2022-12-23T14:41:00.448Z,11.74
2022-12-23T14:43:51.338Z,11.79
2022-12-23T14:46:58.597Z,11.71
2022-12-23T14:49:48.587Z,11.69
2022-12-23T14:52:53.880Z,11.64
2022-12-23T14:56:11.025Z,11.59
2022-12-23T14:59:13.875Z,11.59
2022-12-23T15:01:44.787Z,11.60
2022-12-23T15:04:19.366Z,11.54
2022-12-23T15:06:50.863Z,11.47
2022-12-23T15:09:26.171Z,11.48
2022-12-23T15:11:59.592Z,11.44
2022-12-23T15:14:33.951Z,11.44
2022-12-23T15:17:16.370Z,11.41
2022-12-23T15:19:48.409Z,11.47
2022-12-23T15:22:24.132Z,11.39
2022-12-23T15:24:57.018Z,11.30
2022-12-23T15:27:30.269Z,11.24
2022-12-23T15:29:59.524Z,11.25
2022-12-23T15:32:30.105Z,11.23
2022-12-23T15:35:04.984Z,11.29
2022-12-23T15:37:34.339Z,11.31
2022-12-23T15:40:12.155Z,11.40
2022-12-23T15:42:49.747Z,11.44
2022-12-23T15:45:36.811Z,11.48
2022-12-23T15:48:07.384Z,11.54
2022-12-23T15:50:42.181Z,11.63
2022-12-23T15:53:14.218Z,11.84
2022-12-23T15:55:42.931Z,11.94
2022-12-23T15:58:19.851Z,12.23
2022-12-23T16:00:54.514Z,12.35
2022-12-23T16:03:28.748Z,12.44
2022-12-23T16:06:08.343Z,12.47
2022-12-23T16:08:37.307Z,12.60
2022-12-23T16:11:13.473Z,12.54
2022-12-23T16:13:58.321Z,12.70
2022-12-23T16:16:33.784Z,12.57
2022-12-23T16:19:02.500Z,12.48
2022-12-23T16:21:34.460Z,12.52
2022-12-23T16:24:08.493Z,12.56
2022-12-23T16:26:41.773Z,12.57
2022-12-23T16:29:12.700Z,12.51
2022-12-23T16:31:49.839Z,12.56
2022-12-23T16:34:21.044Z,12.59
2022-12-23T16:36:49.696Z,12.58
2022-12-23T16:39:21.539Z,12.46
2022-12-23T16:41:51.029Z,12.46
2022-12-23T16:44:21.390Z,12.38
2022-12-23T16:46:51.004Z,12.28
2022-12-23T16:49:22.457Z,12.27
2022-12-23T16:51:54.599Z,12.23
2022-12-23T16:54:23.132Z,12.25
2022-12-23T16:56:51.695Z,12.27
2022-12-23T16:59:21.591Z,12.44
2022-12-23T17:01:50.262Z,12.46
2022-12-23T17:04:19.289Z,12.45
2022-12-23T17:06:48.459Z,12.45
2022-12-23T17:09:17.018Z,12.51
2022-12-23T17:11:47.939Z,12.50
2022-12-23T17:14:19.196Z,12.43
2022-12-23T17:16:50.097Z,12.40
2022-12-23T17:19:28.035Z,12.42
2022-12-23T17:22:02.803Z,12.50
2022-12-23T17:24:31.738Z,12.50
2022-12-23T17:27:00.153Z,12.49
2022-12-23T17:29:28.708Z,12.45
2022-12-23T17:31:58.740Z,12.50
2022-12-23T17:34:27.670Z,12.46
2022-12-23T17:36:56.194Z,12.59
2022-12-23T17:39:25.367Z,12.51
2022-12-23T17:41:54.089Z,12.45
2022-12-23T17:44:22.577Z,12.38
2022-12-23T17:46:51.120Z,12.33
2022-12-23T17:49:21.015Z,12.30
2022-12-23T17:51:49.409Z,12.27
2022-12-23T17:54:25.877Z,12.21
